createdAt,value
2023-03-01T00:00:23.266Z,424
2023-03-01T00:01:22.555Z,420
2023-03-01T00:03:21.966Z,421
2023-03-01T00:04:22.592Z,417
2023-03-01T00:05:22.684Z,421
2023-03-01T00:06:22.309Z,422
2023-03-01T00:07:21.864Z,421
2023-03-01T00:09:21.088Z,428
2023-03-01T00:10:22.287Z,430
2023-03-01T00:11:21.598Z,431
2023-03-01T00:12:22.412Z,420
2023-03-01T00:13:22.062Z,419
2023-03-01T00:14:22.129Z,428
2023-03-01T00:16:21.873Z,431
2023-03-01T00:17:21.337Z,430
2023-03-01T00:18:21.740Z,425
2023-03-01T00:19:21.649Z,416
2023-03-01T00:20:22.379Z,413
2023-03-01T00:21:22.247Z,412
2023-03-01T00:22:21.701Z,414
2023-03-01T00:23:21.450Z,424
2023-03-01T00:24:22.120Z,423
2023-03-01T00:25:21.343Z,424
2023-03-01T00:26:21.881Z,410
2023-03-01T00:27:21.740Z,414
2023-03-01T00:28:21.409Z,418
2023-03-01T00:29:21.905Z,423
2023-03-01T00:30:22.295Z,419
2023-03-01T00:31:21.413Z,415
2023-03-01T00:32:21.288Z,421
2023-03-01T00:33:21.795Z,423
2023-03-01T00:35:22.380Z,420
2023-03-01T00:36:21.785Z,414
2023-03-01T00:37:21.332Z,411
2023-03-01T00:38:21.680Z,417
2023-03-01T00:39:21.916Z,418
2023-03-01T00:40:22.389Z,409
2023-03-01T00:41:21.970Z,412
2023-03-01T00:42:21.886Z,418
2023-03-01T00:43:21.924Z,423
2023-03-01T00:44:21.050Z,420
2023-03-01T00:45:22.070Z,425
2023-03-01T00:46:21.617Z,411
2023-03-01T00:47:21.560Z,418
2023-03-01T00:48:21.356Z,431
2023-03-01T00:49:21.789Z,423
2023-03-01T00:50:21.558Z,418
2023-03-01T00:52:21.267Z,430
2023-03-01T00:53:21.244Z,422
2023-03-01T00:54:21.713Z,420
2023-03-01T00:55:22.270Z,413
2023-03-01T00:57:22.299Z,408
2023-03-01T00:58:21.164Z,411
2023-03-01T01:00:23.342Z,413
2023-03-01T01:01:24.833Z,415
2023-03-01T01:03:21.344Z,428
2023-03-01T01:04:21.769Z,426
2023-03-01T01:05:22.411Z,424
2023-03-01T01:06:21.588Z,423
2023-03-01T01:07:21.655Z,422
2023-03-01T01:08:21.249Z,410
2023-03-01T01:09:21.257Z,408
2023-03-01T01:10:21.497Z,409
2023-03-01T01:11:21.855Z,412
2023-03-01T01:12:21.702Z,416
2023-03-01T01:14:21.443Z,420
2023-03-01T01:15:22.059Z,415
2023-03-01T01:16:21.429Z,413
2023-03-01T01:17:21.983Z,416
2023-03-01T01:18:20.955Z,419
2023-03-01T01:19:21.097Z,421
2023-03-01T01:21:20.950Z,425
2023-03-01T01:22:21.813Z,430
2023-03-01T01:23:21.705Z,435
2023-03-01T01:24:22.045Z,428
2023-03-01T01:25:21.771Z,426
2023-03-01T01:26:22.136Z,422
2023-03-01T01:27:21.046Z,416
2023-03-01T01:28:21.246Z,402
2023-03-01T01:29:21.159Z,407
2023-03-01T01:30:21.861Z,412
2023-03-01T01:31:21.420Z,418
2023-03-01T01:32:22.298Z,415
2023-03-01T01:34:21.732Z,426
2023-03-01T01:35:21.346Z,418
2023-03-01T01:36:21.341Z,417
2023-03-01T01:37:21.972Z,414
2023-03-01T01:38:21.181Z,421
2023-03-01T01:39:21.320Z,414
2023-03-01T01:41:21.647Z,424
2023-03-01T01:42:21.840Z,429
2023-03-01T01:44:21.727Z,428
2023-03-01T01:45:21.727Z,421
2023-03-01T01:46:21.489Z,415
2023-03-01T01:47:21.011Z,423
2023-03-01T01:48:21.848Z,419
2023-03-01T01:49:21.156Z,410
2023-03-01T01:50:20.942Z,416
2023-03-01T01:51:21.281Z,429
2023-03-01T01:52:21.641Z,427
2023-03-01T01:53:21.837Z,432
2023-03-01T01:54:21.598Z,429
2023-03-01T01:57:21.536Z,434
2023-03-01T01:59:21.796Z,432
2023-03-01T02:00:22.342Z,442
2023-03-01T02:01:37.175Z,444
2023-03-01T02:02:22.171Z,437
2023-03-01T02:03:22.611Z,430
2023-03-01T02:04:21.894Z,422
2023-03-01T02:05:21.462Z,427
2023-03-01T02:06:21.483Z,431
2023-03-01T02:07:22.141Z,441
2023-03-01T02:08:21.467Z,441
2023-03-01T02:09:21.483Z,443
2023-03-01T02:10:21.569Z,440
2023-03-01T02:11:21.402Z,425
2023-03-01T02:13:21.761Z,438
2023-03-01T02:14:21.781Z,441
2023-03-01T02:15:22.948Z,429
2023-03-01T02:16:21.418Z,427
2023-03-01T02:17:21.695Z,425
2023-03-01T02:18:21.334Z,429
2023-03-01T02:19:21.588Z,433
2023-03-01T02:20:21.604Z,437
2023-03-01T02:21:21.818Z,428
2023-03-01T02:22:21.264Z,427
2023-03-01T02:23:21.295Z,430
2023-03-01T02:24:21.144Z,431
2023-03-01T02:26:22.125Z,426
2023-03-01T02:27:21.196Z,424
2023-03-01T02:28:21.545Z,429
2023-03-01T02:29:21.666Z,430
2023-03-01T02:30:21.737Z,423
2023-03-01T02:31:21.472Z,429
2023-03-01T02:32:21.960Z,425
2023-03-01T02:33:22.106Z,427
2023-03-01T02:34:21.617Z,422
2023-03-01T02:35:21.863Z,420
2023-03-01T02:36:21.912Z,414
2023-03-01T02:37:21.915Z,426
2023-03-01T02:38:21.779Z,434
2023-03-01T02:39:21.544Z,427
2023-03-01T02:40:21.497Z,428
2023-03-01T02:42:21.823Z,418
2023-03-01T02:43:21.584Z,422
2023-03-01T02:44:22.159Z,430
2023-03-01T02:45:22.015Z,435
2023-03-01T02:46:21.500Z,426
2023-03-01T02:47:21.847Z,423
2023-03-01T02:49:22.294Z,419
2023-03-01T02:50:21.549Z,427
2023-03-01T02:51:21.838Z,426
2023-03-01T02:52:21.249Z,419
2023-03-01T02:53:21.437Z,426
2023-03-01T02:54:21.847Z,427
2023-03-01T02:55:21.608Z,426
2023-03-01T02:56:21.852Z,422
2023-03-01T02:57:21.652Z,438
2023-03-01T02:59:22.335Z,432
2023-03-01T03:00:23.832Z,424
2023-03-01T03:01:22.388Z,415
2023-03-01T03:02:22.269Z,414
2023-03-01T03:03:21.612Z,415
2023-03-01T03:04:21.574Z,420
2023-03-01T03:06:21.551Z,431
2023-03-01T03:08:20.981Z,442
2023-03-01T03:09:21.971Z,445
2023-03-01T03:11:21.485Z,433
2023-03-01T03:12:21.318Z,436
2023-03-01T03:13:21.494Z,440
2023-03-01T03:14:21.406Z,436
2023-03-01T03:15:21.697Z,435
2023-03-01T03:16:21.447Z,431
2023-03-01T03:17:21.722Z,432
2023-03-01T03:18:22.295Z,430
2023-03-01T03:19:21.566Z,426
2023-03-01T03:20:22.395Z,431
2023-03-01T03:21:22.445Z,432
2023-03-01T03:22:22.682Z,439
2023-03-01T03:24:21.606Z,443
2023-03-01T03:26:21.422Z,436
2023-03-01T03:27:21.709Z,428
2023-03-01T03:28:21.502Z,440
2023-03-01T03:29:21.843Z,435
2023-03-01T03:30:22.227Z,434
2023-03-01T03:31:21.856Z,432
2023-03-01T03:33:22.122Z,435
2023-03-01T03:34:22.092Z,430
2023-03-01T03:35:21.826Z,427
2023-03-01T03:36:21.813Z,425
2023-03-01T03:37:21.469Z,436
2023-03-01T03:39:21.522Z,433
2023-03-01T03:40:21.527Z,425
2023-03-01T03:42:22.025Z,427
2023-03-01T03:43:21.988Z,422
2023-03-01T03:44:21.464Z,424
2023-03-01T03:45:22.026Z,430
2023-03-01T03:46:21.151Z,428
2023-03-01T03:47:21.367Z,432
2023-03-01T03:48:21.347Z,429
2023-03-01T03:49:22.657Z,420
2023-03-01T03:50:21.761Z,417
2023-03-01T03:51:20.923Z,428
2023-03-01T03:52:21.551Z,425
2023-03-01T03:53:21.271Z,423
2023-03-01T03:54:21.661Z,426
2023-03-01T03:55:22.745Z,422
2023-03-01T03:56:21.281Z,423
2023-03-01T03:57:22.092Z,413
2023-03-01T03:59:22.433Z,427
2023-03-01T04:00:23.536Z,421
2023-03-01T04:01:21.971Z,415
2023-03-01T04:02:22.137Z,418
2023-03-01T04:03:21.704Z,422
2023-03-01T04:04:21.948Z,425
2023-03-01T04:05:21.897Z,423
2023-03-01T04:06:21.814Z,428
2023-03-01T04:08:21.269Z,431
2023-03-01T04:09:21.601Z,436
2023-03-01T04:10:22.606Z,433
2023-03-01T04:11:21.291Z,435
2023-03-01T04:13:21.358Z,425
2023-03-01T04:16:30.479Z,419
2023-03-01T04:18:21.726Z,423
2023-03-01T04:19:21.470Z,422
2023-03-01T04:21:21.983Z,424
2023-03-01T04:23:21.508Z,422
2023-03-01T04:25:22.072Z,420
2023-03-01T04:26:21.264Z,420
2023-03-01T04:28:21.854Z,417
2023-03-01T04:29:21.227Z,422
2023-03-01T04:30:21.785Z,442
2023-03-01T04:31:21.467Z,434
2023-03-01T04:32:21.498Z,435
2023-03-01T04:34:22.126Z,420
2023-03-01T04:35:21.636Z,421
2023-03-01T04:36:22.569Z,428
2023-03-01T04:37:21.687Z,441
2023-03-01T04:38:22.248Z,433
2023-03-01T04:39:21.839Z,424
2023-03-01T04:42:22.325Z,435
2023-03-01T04:43:22.575Z,424
2023-03-01T04:44:21.936Z,419
2023-03-01T04:45:22.158Z,429
2023-03-01T04:46:22.216Z,431
2023-03-01T04:47:21.697Z,426
2023-03-01T04:48:44.131Z,423
2023-03-01T04:49:21.872Z,414
2023-03-01T04:50:21.935Z,419
2023-03-01T04:51:21.745Z,431
2023-03-01T04:52:22.260Z,433
2023-03-01T04:53:21.369Z,425
2023-03-01T04:54:21.663Z,422
2023-03-01T04:55:22.337Z,420
2023-03-01T04:56:22.326Z,434
2023-03-01T04:57:21.824Z,433
2023-03-01T04:58:21.142Z,431
2023-03-01T04:59:21.915Z,446
2023-03-01T05:00:23.431Z,440
2023-03-01T05:01:22.399Z,433
2023-03-01T05:02:22.715Z,439
2023-03-01T05:03:21.894Z,438
2023-03-01T05:04:21.802Z,434
2023-03-01T05:05:22.865Z,431
2023-03-01T05:06:22.704Z,422
2023-03-01T05:07:22.539Z,420
2023-03-01T05:09:21.556Z,439
2023-03-01T05:10:21.835Z,437
2023-03-01T05:11:21.794Z,434
2023-03-01T05:12:21.610Z,446
2023-03-01T05:13:22.063Z,444
2023-03-01T05:14:21.530Z,446
2023-03-01T05:16:21.710Z,443
2023-03-01T05:17:22.420Z,448
2023-03-01T05:18:22.146Z,445
2023-03-01T05:19:21.595Z,442
2023-03-01T05:20:22.437Z,455
2023-03-01T05:22:21.936Z,450
2023-03-01T05:24:21.519Z,452
2023-03-01T05:26:28.714Z,449
2023-03-01T05:27:21.313Z,438
2023-03-01T05:28:21.775Z,452
2023-03-01T05:30:21.720Z,451
2023-03-01T05:31:22.131Z,448
2023-03-01T05:32:21.895Z,450
2023-03-01T05:33:22.084Z,452
2023-03-01T05:34:21.535Z,455
2023-03-01T05:35:22.125Z,458
2023-03-01T05:36:21.500Z,456
2023-03-01T05:37:21.673Z,445
2023-03-01T05:39:22.336Z,453
2023-03-01T05:40:22.062Z,454
2023-03-01T05:42:21.601Z,448
2023-03-01T05:44:21.825Z,447
2023-03-01T05:45:22.043Z,455
2023-03-01T05:46:22.275Z,458
2023-03-01T05:47:21.915Z,453
2023-03-01T05:48:21.726Z,456
2023-03-01T05:49:22.015Z,461
2023-03-01T05:50:21.824Z,465
2023-03-01T05:51:22.734Z,459
2023-03-01T05:53:21.613Z,466
2023-03-01T05:54:21.773Z,470
2023-03-01T05:55:22.187Z,463
2023-03-01T05:56:21.648Z,466
2023-03-01T05:57:21.455Z,463
2023-03-01T05:58:21.515Z,461
2023-03-01T06:00:23.007Z,462
2023-03-01T06:01:22.264Z,451
2023-03-01T06:02:21.484Z,460
2023-03-01T06:03:22.153Z,456
2023-03-01T06:04:21.550Z,454
2023-03-01T06:05:21.915Z,457
2023-03-01T06:06:21.130Z,457
2023-03-01T06:07:21.543Z,467
2023-03-01T06:08:21.646Z,468
2023-03-01T06:09:21.868Z,462
2023-03-01T06:10:22.217Z,474
2023-03-01T06:11:22.271Z,472
2023-03-01T06:12:22.670Z,470
2023-03-01T06:13:22.098Z,467
2023-03-01T06:14:21.201Z,462
2023-03-01T06:15:22.540Z,454
2023-03-01T06:16:22.080Z,463
2023-03-01T06:17:22.701Z,464
2023-03-01T06:18:22.467Z,458
2023-03-01T06:19:21.551Z,456
2023-03-01T06:20:22.600Z,452
2023-03-01T06:21:22.110Z,444
2023-03-01T06:22:22.734Z,446
2023-03-01T06:23:22.107Z,462
2023-03-01T06:24:21.451Z,457
2023-03-01T06:25:23.136Z,453
2023-03-01T06:26:21.942Z,461
2023-03-01T06:27:26.612Z,457
2023-03-01T06:28:21.274Z,451
2023-03-01T06:29:22.004Z,453
2023-03-01T06:30:22.559Z,461
2023-03-01T06:32:22.262Z,460
2023-03-01T06:33:26.871Z,450
2023-03-01T06:34:21.944Z,447
2023-03-01T06:35:26.102Z,449
2023-03-01T06:36:22.714Z,452
2023-03-01T06:37:22.509Z,447
2023-03-01T06:39:22.234Z,443
2023-03-01T06:40:21.942Z,447
2023-03-01T06:42:21.840Z,448
2023-03-01T06:43:21.826Z,458
2023-03-01T06:44:21.927Z,460
2023-03-01T06:45:21.854Z,452
2023-03-01T06:46:21.646Z,450
2023-03-01T06:47:35.574Z,453
2023-03-01T06:48:21.745Z,455
2023-03-01T06:49:21.374Z,447
2023-03-01T06:51:36.183Z,440
2023-03-01T06:53:21.559Z,448
2023-03-01T06:55:21.958Z,455
2023-03-01T06:57:21.998Z,448
2023-03-01T06:59:22.309Z,442
2023-03-01T07:01:23.334Z,437
2023-03-01T07:02:22.255Z,436
2023-03-01T07:04:21.615Z,440
2023-03-01T07:06:22.168Z,447
2023-03-01T07:07:21.607Z,445
2023-03-01T07:08:22.267Z,433
2023-03-01T07:09:21.952Z,438
2023-03-01T07:10:21.645Z,441
2023-03-01T07:12:22.213Z,438
2023-03-01T07:13:21.879Z,444
2023-03-01T07:14:22.506Z,460
2023-03-01T07:16:23.044Z,458
2023-03-01T07:17:22.289Z,452
2023-03-01T07:18:22.215Z,461
2023-03-01T07:19:22.424Z,444
2023-03-01T07:20:22.653Z,451
2023-03-01T07:22:21.585Z,461
2023-03-01T07:23:22.226Z,452
2023-03-01T07:25:22.641Z,461
2023-03-01T07:26:24.574Z,462
2023-03-01T07:27:22.860Z,457
2023-03-01T07:28:22.538Z,467
2023-03-01T07:29:21.712Z,474
2023-03-01T07:30:21.698Z,470
2023-03-01T07:31:21.729Z,467
2023-03-01T07:32:22.395Z,463
2023-03-01T07:33:22.411Z,457
2023-03-01T07:34:21.778Z,456
2023-03-01T07:35:22.674Z,458
2023-03-01T07:36:22.052Z,461
2023-03-01T07:37:22.911Z,469
2023-03-01T07:38:22.348Z,475
2023-03-01T07:39:22.664Z,469
2023-03-01T07:40:22.440Z,470
2023-03-01T07:41:22.928Z,471
2023-03-01T07:42:22.444Z,470
2023-03-01T07:43:22.503Z,472
2023-03-01T07:44:22.230Z,477
2023-03-01T07:46:23.018Z,469
2023-03-01T07:48:22.653Z,473
2023-03-01T07:49:23.313Z,476
2023-03-01T07:50:22.637Z,466
2023-03-01T07:51:22.397Z,469
2023-03-01T07:52:21.778Z,472
2023-03-01T07:53:22.341Z,473
2023-03-01T07:54:22.020Z,470
2023-03-01T07:55:22.817Z,469
2023-03-01T07:56:22.303Z,462
2023-03-01T07:57:22.375Z,466
2023-03-01T07:58:22.905Z,460
2023-03-01T07:59:22.018Z,467
2023-03-01T08:00:23.699Z,478
2023-03-01T08:01:25.741Z,467
2023-03-01T08:02:22.565Z,461
2023-03-01T08:04:23.106Z,447
2023-03-01T08:05:23.731Z,440
2023-03-01T08:06:21.540Z,453
2023-03-01T08:07:22.925Z,465
2023-03-01T08:09:22.906Z,452
2023-03-01T08:10:22.513Z,437
2023-03-01T08:11:23.000Z,439
2023-03-01T08:12:22.110Z,438
2023-03-01T08:13:23.087Z,435
2023-03-01T08:14:23.236Z,433
2023-03-01T08:15:23.488Z,431
2023-03-01T08:16:22.885Z,430
2023-03-01T08:17:22.780Z,436
2023-03-01T08:18:22.657Z,434
2023-03-01T08:19:22.108Z,436
2023-03-01T08:20:22.760Z,435
2023-03-01T08:21:23.262Z,433
2023-03-01T08:22:22.819Z,436
2023-03-01T08:23:22.366Z,432
2023-03-01T08:24:22.315Z,429
2023-03-01T08:25:22.824Z,425
2023-03-01T08:26:22.797Z,426
2023-03-01T08:27:23.637Z,424
2023-03-01T08:28:23.049Z,419
2023-03-01T08:29:23.621Z,421
2023-03-01T08:30:24.496Z,414
2023-03-01T08:31:22.504Z,423
2023-03-01T08:32:23.227Z,412
2023-03-01T08:33:22.363Z,415
2023-03-01T08:34:23.570Z,423
2023-03-01T08:35:23.149Z,430
2023-03-01T08:36:22.675Z,427
2023-03-01T08:37:22.597Z,415
2023-03-01T08:38:22.432Z,410
2023-03-01T08:39:22.582Z,406
2023-03-01T08:40:22.395Z,409
2023-03-01T08:41:22.178Z,401
2023-03-01T08:47:20.772Z,407
2023-03-01T08:49:19.769Z,401
2023-03-01T08:50:25.488Z,394
2023-03-01T08:51:19.626Z,399
2023-03-01T08:52:25.009Z,400
2023-03-01T08:53:19.421Z,398
2023-03-01T08:54:20.028Z,405
2023-03-01T08:55:19.286Z,410
2023-03-01T08:57:19.914Z,394
2023-03-01T08:58:20.409Z,389
2023-03-01T08:59:20.042Z,387
2023-03-01T09:00:27.025Z,397
2023-03-01T09:01:20.672Z,400
2023-03-01T09:02:28.511Z,401
2023-03-01T09:03:20.182Z,399
2023-03-01T09:04:27.954Z,395
2023-03-01T09:05:20.469Z,392
2023-03-01T09:06:28.368Z,399
2023-03-01T09:07:20.163Z,397
2023-03-01T09:08:20.107Z,406
2023-03-01T09:09:20.817Z,407
2023-03-01T09:10:19.843Z,413
2023-03-01T09:11:19.962Z,410
2023-03-01T09:12:20.054Z,403
2023-03-01T09:13:20.829Z,394
2023-03-01T09:14:20.288Z,389
2023-03-01T09:15:21.003Z,386
2023-03-01T09:16:20.385Z,382
2023-03-01T09:17:20.011Z,384
2023-03-01T09:18:20.003Z,382
2023-03-01T09:19:20.332Z,387
2023-03-01T09:20:20.579Z,394
2023-03-01T09:21:27.474Z,396
2023-03-01T09:22:20.052Z,401
2023-03-01T09:23:20.160Z,404
2023-03-01T09:24:20.369Z,399
2023-03-01T09:25:20.104Z,402
2023-03-01T09:26:20.056Z,395
2023-03-01T09:27:20.049Z,403
2023-03-01T09:28:29.487Z,407
2023-03-01T09:29:19.673Z,392
2023-03-01T09:30:20.129Z,380
2023-03-01T09:31:19.941Z,384
2023-03-01T09:32:41.384Z,383
2023-03-01T09:33:20.572Z,387
2023-03-01T09:34:20.501Z,382
2023-03-01T09:35:20.500Z,380
2023-03-01T09:36:20.162Z,384
2023-03-01T09:37:20.089Z,379
2023-03-01T09:38:20.429Z,377
2023-03-01T09:39:20.492Z,383
2023-03-01T09:40:19.777Z,394
2023-03-01T09:41:19.975Z,393
2023-03-01T09:42:20.094Z,396
2023-03-01T09:43:20.468Z,393
2023-03-01T09:44:20.099Z,383
2023-03-01T09:45:20.355Z,379
2023-03-01T09:46:19.201Z,383
2023-03-01T09:47:20.003Z,387
2023-03-01T09:48:19.702Z,393
2023-03-01T09:49:20.622Z,396
2023-03-01T09:50:20.385Z,397
2023-03-01T09:51:20.173Z,384
2023-03-01T09:52:20.122Z,383
2023-03-01T09:54:20.566Z,387
2023-03-01T09:55:20.048Z,382
2023-03-01T09:56:20.440Z,384
2023-03-01T09:57:19.762Z,387
2023-03-01T09:58:19.556Z,389
2023-03-01T09:59:22.255Z,392
2023-03-01T10:00:21.361Z,390
2023-03-01T10:01:20.590Z,383
2023-03-01T10:02:20.263Z,378
2023-03-01T10:04:20.401Z,379
2023-03-01T10:05:20.202Z,388
2023-03-01T10:06:34.055Z,382
2023-03-01T10:07:20.144Z,378
2023-03-01T10:08:19.850Z,386
2023-03-01T10:09:20.213Z,391
2023-03-01T10:10:20.049Z,377
2023-03-01T10:11:21.339Z,384
2023-03-01T10:12:19.955Z,403
2023-03-01T10:13:20.149Z,393
2023-03-01T10:14:21.046Z,387
2023-03-01T10:15:20.832Z,391
2023-03-01T10:16:20.185Z,396
2023-03-01T10:18:20.312Z,391
2023-03-01T10:19:20.077Z,387
2023-03-01T10:20:20.544Z,386
2023-03-01T10:22:20.292Z,392
2023-03-01T10:23:21.167Z,386
2023-03-01T10:24:20.217Z,384
2023-03-01T10:25:20.065Z,387
2023-03-01T10:26:20.149Z,395
2023-03-01T10:27:20.053Z,389
2023-03-01T10:28:19.735Z,384
2023-03-01T10:29:20.223Z,388
2023-03-01T10:30:20.041Z,381
2023-03-01T10:31:19.702Z,376
2023-03-01T10:33:20.294Z,380
2023-03-01T10:34:20.129Z,389
2023-03-01T10:36:19.621Z,392
2023-03-01T10:37:20.289Z,386
2023-03-01T10:38:19.885Z,378
2023-03-01T10:39:20.366Z,381
2023-03-01T10:40:20.100Z,383
2023-03-01T10:41:21.714Z,388
2023-03-01T10:42:21.849Z,380
2023-03-01T10:43:22.277Z,390
2023-03-01T10:44:22.212Z,394
2023-03-01T10:45:22.119Z,397
2023-03-01T10:47:22.808Z,382
2023-03-01T10:48:22.232Z,387
2023-03-01T10:49:23.428Z,393
2023-03-01T10:50:22.534Z,394
2023-03-01T10:51:22.770Z,385
2023-03-01T10:52:22.150Z,391
2023-03-01T10:53:22.783Z,392
2023-03-01T10:54:22.956Z,395
2023-03-01T10:55:22.825Z,398
2023-03-01T10:56:23.310Z,388
2023-03-01T10:57:22.753Z,393
2023-03-01T10:58:22.293Z,397
2023-03-01T10:59:22.572Z,400
2023-03-01T11:00:23.228Z,399
2023-03-01T11:01:24.261Z,391
2023-03-01T11:02:25.277Z,381
2023-03-01T11:03:24.013Z,383
2023-03-01T11:04:23.672Z,390
2023-03-01T11:05:24.658Z,392
2023-03-01T11:06:23.335Z,390
2023-03-01T11:07:23.257Z,398
2023-03-01T11:08:24.420Z,406
2023-03-01T11:09:22.342Z,403
2023-03-01T11:10:23.158Z,406
2023-03-01T11:11:22.346Z,407
2023-03-01T11:12:22.436Z,401
2023-03-01T11:13:22.799Z,392
2023-03-01T11:14:27.156Z,388
2023-03-01T11:15:23.287Z,382
2023-03-01T11:16:23.445Z,379
2023-03-01T11:17:22.713Z,388
2023-03-01T11:18:26.619Z,389
2023-03-01T11:19:22.796Z,383
2023-03-01T11:20:24.690Z,385
2023-03-01T11:21:22.465Z,395
2023-03-01T11:22:22.750Z,387
2023-03-01T11:23:27.613Z,385
2023-03-01T11:24:22.210Z,376
2023-03-01T11:25:23.101Z,379
2023-03-01T11:26:23.367Z,375
2023-03-01T11:27:28.799Z,369
2023-03-01T11:28:22.837Z,375
2023-03-01T11:29:22.520Z,386
2023-03-01T11:30:23.433Z,387
2023-03-01T11:31:23.025Z,382
2023-03-01T11:32:21.948Z,378
2023-03-01T11:33:22.576Z,374
2023-03-01T11:34:22.881Z,376
2023-03-01T11:35:22.444Z,382
2023-03-01T11:36:22.561Z,385
2023-03-01T11:37:23.745Z,382
2023-03-01T11:38:22.896Z,376
2023-03-01T11:39:22.747Z,375
2023-03-01T11:40:24.067Z,380
2023-03-01T11:41:23.217Z,388
2023-03-01T11:42:22.315Z,389
2023-03-01T11:43:37.052Z,380
2023-03-01T11:44:23.130Z,377
2023-03-01T11:45:22.280Z,386
2023-03-01T11:46:22.163Z,380
2023-03-01T11:47:22.032Z,379
2023-03-01T11:48:22.863Z,380
2023-03-01T11:49:22.067Z,376
2023-03-01T11:50:23.492Z,377
2023-03-01T11:51:22.771Z,387
2023-03-01T11:52:22.213Z,389
2023-03-01T11:53:22.498Z,383
2023-03-01T11:54:22.489Z,382
2023-03-01T11:55:23.061Z,378
2023-03-01T11:56:23.872Z,393
2023-03-01T11:58:22.027Z,378
2023-03-01T12:00:23.466Z,383
2023-03-01T12:01:42.657Z,392
2023-03-01T12:02:22.962Z,382
2023-03-01T12:03:22.508Z,392
2023-03-01T12:04:23.008Z,373
2023-03-01T12:05:22.224Z,371
2023-03-01T12:06:23.533Z,372
2023-03-01T12:07:22.212Z,362
2023-03-01T12:08:22.653Z,369
2023-03-01T12:09:44.440Z,375
2023-03-01T12:10:22.451Z,369
2023-03-01T12:11:22.440Z,377
2023-03-01T12:12:22.338Z,380
2023-03-01T12:13:23.460Z,381
2023-03-01T12:14:22.863Z,373
2023-03-01T12:15:23.051Z,376
2023-03-01T12:17:22.709Z,376
2023-03-01T12:19:21.827Z,383
2023-03-01T12:20:22.424Z,376
2023-03-01T12:21:22.091Z,378
2023-03-01T12:22:23.026Z,384
2023-03-01T12:23:22.463Z,379
2023-03-01T12:25:22.232Z,384
2023-03-01T12:26:22.755Z,379
2023-03-01T12:27:22.446Z,368
2023-03-01T12:28:22.478Z,372
2023-03-01T12:29:22.541Z,380
2023-03-01T12:30:22.774Z,379
2023-03-01T12:31:22.682Z,380
2023-03-01T12:32:22.698Z,374
2023-03-01T12:33:22.919Z,365
2023-03-01T12:34:22.327Z,367
2023-03-01T12:36:22.908Z,365
2023-03-01T12:37:22.823Z,374
2023-03-01T12:38:22.353Z,378
2023-03-01T12:39:22.561Z,371
2023-03-01T12:40:22.772Z,374
2023-03-01T12:41:22.636Z,383
2023-03-01T12:42:22.708Z,379
2023-03-01T12:43:23.097Z,371
2023-03-01T12:44:22.800Z,375
2023-03-01T12:45:23.344Z,385
2023-03-01T12:46:23.026Z,372
2023-03-01T12:47:23.789Z,374
2023-03-01T12:49:22.465Z,378
2023-03-01T12:50:22.708Z,381
2023-03-01T12:51:22.670Z,384
2023-03-01T12:53:22.762Z,389
2023-03-01T12:54:23.225Z,387
2023-03-01T12:55:23.217Z,368
2023-03-01T12:56:22.362Z,366
2023-03-01T12:57:22.565Z,369
2023-03-01T12:58:23.663Z,366
2023-03-01T13:00:24.748Z,361
2023-03-01T13:01:23.735Z,358
2023-03-01T13:02:22.960Z,360
2023-03-01T13:03:22.552Z,368
2023-03-01T13:04:23.558Z,363
2023-03-01T13:05:22.337Z,369
2023-03-01T13:06:25.787Z,368
2023-03-01T13:07:23.879Z,361
2023-03-01T13:08:23.310Z,362
2023-03-01T13:10:23.733Z,367
2023-03-01T13:13:23.485Z,365
2023-03-01T13:14:22.536Z,372
2023-03-01T13:15:23.272Z,376
2023-03-01T13:16:22.710Z,383
2023-03-01T13:17:22.917Z,374
2023-03-01T13:18:23.063Z,368
2023-03-01T13:19:22.784Z,367
2023-03-01T13:20:22.840Z,366
2023-03-01T13:21:22.314Z,365
2023-03-01T13:24:23.443Z,359
2023-03-01T13:25:27.641Z,375
2023-03-01T13:26:22.517Z,366
2023-03-01T13:27:22.981Z,373
2023-03-01T13:28:22.517Z,378
2023-03-01T13:29:23.152Z,370
2023-03-01T13:30:22.530Z,376
2023-03-01T13:32:26.800Z,375
2023-03-01T13:33:23.006Z,380
2023-03-01T13:34:22.494Z,381
2023-03-01T13:35:22.778Z,372
2023-03-01T13:36:23.385Z,363
2023-03-01T13:37:23.205Z,359
2023-03-01T13:38:22.665Z,368
2023-03-01T13:39:22.793Z,375
2023-03-01T13:40:23.579Z,364
2023-03-01T13:42:24.261Z,368
2023-03-01T13:44:23.672Z,376
2023-03-01T13:46:27.844Z,384
2023-03-01T13:47:23.396Z,377
2023-03-01T13:48:22.618Z,375
2023-03-01T13:50:28.649Z,368
2023-03-01T13:52:22.643Z,369
2023-03-01T13:53:22.685Z,372
2023-03-01T13:54:22.701Z,359
2023-03-01T13:55:23.707Z,365
2023-03-01T13:56:22.942Z,376
2023-03-01T13:57:22.541Z,371
2023-03-01T13:58:30.417Z,377
2023-03-01T14:00:31.848Z,375
2023-03-01T14:01:22.721Z,378
2023-03-01T14:02:30.853Z,379
2023-03-01T14:03:22.354Z,376
2023-03-01T14:04:30.738Z,380
2023-03-01T14:05:22.802Z,379
2023-03-01T14:06:22.671Z,380
2023-03-01T14:07:22.490Z,374
2023-03-01T14:08:23.048Z,379
2023-03-01T14:09:21.914Z,373
2023-03-01T14:10:21.954Z,364
2023-03-01T14:11:21.677Z,373
2023-03-01T14:13:22.247Z,378
2023-03-01T14:14:22.956Z,377
2023-03-01T14:15:22.504Z,382
2023-03-01T14:16:37.146Z,381
2023-03-01T14:17:23.290Z,371
2023-03-01T14:18:22.923Z,372
2023-03-01T14:19:32.685Z,369
2023-03-01T14:20:22.654Z,360
2023-03-01T14:21:22.657Z,356
2023-03-01T14:22:22.678Z,358
2023-03-01T14:23:22.622Z,367
2023-03-01T14:24:41.955Z,381
2023-03-01T14:25:23.300Z,376
2023-03-01T14:26:23.546Z,370
2023-03-01T14:27:22.583Z,378
2023-03-01T14:28:22.366Z,371
2023-03-01T14:29:21.827Z,379
2023-03-01T14:30:22.909Z,388
2023-03-01T14:31:22.098Z,377
2023-03-01T14:32:22.600Z,374
2023-03-01T14:33:22.833Z,369
2023-03-01T14:34:22.764Z,383
2023-03-01T14:35:23.251Z,374
2023-03-01T14:36:22.313Z,384
2023-03-01T14:37:23.139Z,381
2023-03-01T14:38:22.953Z,374
2023-03-01T14:39:23.051Z,364
2023-03-01T14:40:23.182Z,362
2023-03-01T14:41:23.286Z,363
2023-03-01T14:42:22.680Z,366
2023-03-01T14:43:22.556Z,377
2023-03-01T14:44:22.820Z,378
2023-03-01T14:45:23.757Z,379
2023-03-01T14:47:24.128Z,375
2023-03-01T14:48:23.039Z,383
2023-03-01T14:49:22.946Z,381
2023-03-01T14:50:22.777Z,373
2023-03-01T14:51:22.531Z,371
2023-03-01T14:53:22.710Z,381
2023-03-01T14:54:23.286Z,386
2023-03-01T14:55:23.102Z,372
2023-03-01T14:56:22.455Z,368
2023-03-01T14:57:22.215Z,381
2023-03-01T14:59:23.553Z,376
2023-03-01T15:00:23.865Z,379
2023-03-01T15:01:23.442Z,378
2023-03-01T15:03:28.880Z,385
2023-03-01T15:04:22.204Z,375
2023-03-01T15:05:22.532Z,373
2023-03-01T15:06:22.781Z,369
2023-03-01T15:07:22.666Z,376
2023-03-01T15:08:22.699Z,366
2023-03-01T15:09:23.220Z,373
2023-03-01T15:10:22.956Z,375
2023-03-01T15:11:23.258Z,368
2023-03-01T15:12:22.893Z,366
2023-03-01T15:13:22.972Z,370
2023-03-01T15:14:22.600Z,379
2023-03-01T15:15:23.307Z,377
2023-03-01T15:16:23.105Z,368
2023-03-01T15:17:23.241Z,369
2023-03-01T15:18:22.765Z,368
2023-03-01T15:19:22.264Z,373
2023-03-01T15:20:23.216Z,370
2023-03-01T15:21:22.566Z,367
2023-03-01T15:22:23.206Z,371
2023-03-01T15:23:23.228Z,369
2023-03-01T15:24:22.527Z,376
2023-03-01T15:25:24.017Z,374
2023-03-01T15:26:22.739Z,370
2023-03-01T15:27:22.498Z,377
2023-03-01T15:28:23.008Z,387
2023-03-01T15:29:22.679Z,381
2023-03-01T15:30:23.020Z,382
2023-03-01T15:31:23.043Z,379
2023-03-01T15:32:22.862Z,372
2023-03-01T15:33:23.344Z,370
2023-03-01T15:34:22.658Z,373
2023-03-01T15:35:23.381Z,365
2023-03-01T15:36:22.428Z,369
2023-03-01T15:37:22.801Z,378
2023-03-01T15:38:25.991Z,380